Time;durP1;ratioP1;P1;durP2;ratioP2;P2;SDS_P1;SDS_P2;PMS_P1;PMS_P2;Temp;Humidity;BMP_temperature;BMP_pressure;BME280_temperature;BME280_humidity;BME280_pressure;Samples;Min_cycle;Max_cycle;Signal;HPM_P1;HPM_P2
2022/05/04 00:01:08;;;;;;;11.65;7.43;;;19.30;59.50;;;;;;5048676;28;20383;-78
2022/05/04 00:03:40;;;;;;;8.93;7.10;;;19.50;59.30;;;;;;5037593;28;20074;-77
2022/05/04 00:06:07;;;;;;;10.70;6.90;;;19.40;59.60;;;;;;5055455;28;20087;-77
2022/05/04 00:08:32;;;;;;;11.13;7.43;;;19.30;59.60;;;;;;5054818;28;20028;-78
2022/05/04 00:10:59;;;;;;;10.35;6.80;;;19.30;59.50;;;;;;5046566;28;20037;-77
2022/05/04 00:13:25;;;;;;;8.20;6.30;;;19.40;59.40;;;;;;5049589;28;20014;-77
2022/05/04 00:15:51;;;;;;;9.07;6.43;;;19.30;59.70;;;;;;5045965;28;20414;-79
2022/05/04 00:18:16;;;;;;;8.68;7.10;;;19.20;59.40;;;;;;5052972;28;20029;-78
2022/05/04 00:20:42;;;;;;;10.43;7.25;;;19.10;60.00;;;;;;5048719;28;20036;-78
2022/05/04 00:23:08;;;;;;;7.55;6.30;;;19.20;59.80;;;;;;5054159;28;20047;-78
2022/05/04 00:25:34;;;;;;;8.18;6.80;;;19.30;59.40;;;;;;5054059;28;20037;-76
2022/05/04 00:28:00;;;;;;;7.88;6.50;;;19.30;59.40;;;;;;5054206;28;20100;-78
2022/05/04 00:30:26;;;;;;;8.40;6.75;;;19.30;59.30;;;;;;5055426;28;20108;-77
2022/05/04 00:32:52;;;;;;;10.00;6.95;;;19.30;59.30;;;;;;5047438;28;20029;-79
2022/05/04 00:35:18;;;;;;;9.95;7.20;;;19.50;59.00;;;;;;5035668;28;20013;-79
2022/05/04 00:37:43;;;;;;;9.07;6.80;;;19.30;59.00;;;;;;5036056;28;20574;-79
2022/05/04 00:40:09;;;;;;;10.07;7.82;;;19.40;59.10;;;;;;5054906;28;20480;-78
2022/05/04 00:42:35;;;;;;;11.30;7.50;;;19.60;59.00;;;;;;5047608;28;20488;-78
2022/05/04 00:45:01;;;;;;;10.10;6.40;;;19.60;58.60;;;;;;5043309;28;20124;-81
2022/05/04 00:47:27;;;;;;;9.43;7.78;;;19.60;58.60;;;;;;5036485;28;20033;-78
2022/05/04 00:49:52;;;;;;;9.07;7.00;;;19.60;58.40;;;;;;5036262;28;20128;-77
2022/05/04 00:52:19;;;;;;;10.13;6.95;;;19.60;58.30;;;;;;5055132;28;20541;-79
2022/05/04 00:54:48;;;;;;;8.35;7.07;;;19.70;58.30;;;;;;5054495;28;20021;-78
2022/05/04 00:57:14;;;;;;;9.70;7.10;;;19.50;58.90;;;;;;5054355;28;20033;-78
2022/05/04 00:59:42;;;;;;;9.18;6.90;;;19.60;58.70;;;;;;5054457;28;20029;-79
2022/05/04 01:02:08;;;;;;;8.38;7.00;;;19.50;59.30;;;;;;5035604;28;20511;-79
2022/05/04 01:04:34;;;;;;;9.52;6.65;;;19.30;60.00;;;;;;5030514;28;20035;-78
2022/05/04 01:07:00;;;;;;;8.40;6.40;;;19.20;59.60;;;;;;5029258;28;20036;-77
2022/05/04 01:09:26;;;;;;;9.60;7.70;;;19.20;58.80;;;;;;5053450;28;20028;-79
2022/05/04 01:11:51;;;;;;;8.65;7.40;;;19.30;58.10;;;;;;5054700;28;20021;-81
2022/05/04 01:14:18;;;;;;;10.40;7.82;;;19.40;57.80;;;;;;5054243;28;20028;-79
2022/05/04 01:16:48;;;;;;;11.60;8.18;;;19.40;57.70;;;;;;5023383;28;20045;-79
2022/05/04 01:19:14;;;;;;;8.75;7.28;;;19.50;57.40;;;;;;5031615;28;20029;-79
2022/05/04 01:21:40;;;;;;;8.27;7.18;;;19.50;57.60;;;;;;5034438;28;20025;-79
2022/05/04 01:24:07;;;;;;;12.10;7.03;;;19.40;57.40;;;;;;5052298;28;20035;-84
2022/05/04 01:26:33;;;;;;;8.55;6.93;;;19.30;57.00;;;;;;5037068;28;20464;-78
2022/05/04 01:29:00;;;;;;;8.75;6.78;;;19.30;56.90;;;;;;5044781;28;20027;-84
2022/05/04 01:31:26;;;;;;;11.15;7.18;;;19.30;56.50;;;;;;5031346;28;20485;-85
2022/05/04 01:33:51;;;;;;;9.18;6.47;;;19.20;56.90;;;;;;5034320;28;20404;-89
2022/05/04 01:36:17;;;;;;;8.10;6.95;;;19.10;57.10;;;;;;5034646;28;20052;-79
2022/05/04 01:38:43;;;;;;;10.00;8.43;;;18.80;57.20;;;;;;5041275;28;20074;-79
2022/05/04 01:42:02;;;;;;;8.95;7.75;;;18.80;57.30;;;;;;5035842;28;20025;-79
2022/05/04 01:43:54;;;;;;;9.60;6.82;;;18.80;57.60;;;;;;5043451;28;20048;-80
2022/05/04 01:46:21;;;;;;;8.75;7.07;;;18.70;58.10;;;;;;5053561;28;20387;-79
2022/05/04 01:48:48;;;;;;;8.20;6.80;;;18.60;57.70;;;;;;5053803;28;20657;-79
2022/05/04 01:51:14;;;;;;;9.65;7.32;;;18.60;57.30;;;;;;5053141;28;20021;-80
2022/05/04 01:53:40;;;;;;;9.73;7.65;;;18.70;57.10;;;;;;5053195;28;20085;-80
2022/05/04 01:56:07;;;;;;;10.18;8.23;;;18.80;57.20;;;;;;5035967;28;20025;-80
2022/05/04 01:58:33;;;;;;;9.60;7.93;;;18.90;57.20;;;;;;5035998;28;20025;-81
2022/05/04 02:00:59;;;;;;;8.40;6.90;;;19.00;57.30;;;;;;5049874;28;20035;-79
2022/05/04 02:03:25;;;;;;;7.88;6.30;;;18.90;56.60;;;;;;5048386;28;20017;-80
2022/05/04 02:05:51;;;;;;;9.07;7.80;;;18.60;56.80;;;;;;5053126;28;20039;-82
2022/05/04 02:08:17;;;;;;;11.52;8.45;;;18.60;57.00;;;;;;5034881;28;20479;-79
2022/05/04 02:10:43;;;;;;;10.63;8.18;;;18.60;58.10;;;;;;5035008;28;20028;-79
2022/05/04 02:13:08;;;;;;;9.65;7.85;;;18.50;58.50;;;;;;5052822;28;20047;-79
2022/05/04 02:15:34;;;;;;;10.70;8.18;;;18.60;58.00;;;;;;5052640;28;20024;-78
2022/05/04 02:17:59;;;;;;;10.60;7.90;;;18.70;58.00;;;;;;5052793;28;20017;-78
2022/05/04 02:20:25;;;;;;;8.63;7.40;;;18.90;58.00;;;;;;5034905;28;20025;-78
2022/05/04 02:22:51;;;;;;;9.65;7.70;;;18.80;58.50;;;;;;5028111;28;20026;-77
2022/05/04 02:25:17;;;;;;;13.00;7.57;;;18.90;58.20;;;;;;5021376;28;20357;-78
2022/05/04 02:27:43;;;;;;;9.02;7.45;;;19.00;58.10;;;;;;5034194;28;20525;-78
2022/05/04 02:30:09;;;;;;;8.48;7.00;;;19.20;57.10;;;;;;5030522;28;20104;-78
2022/05/04 02:32:35;;;;;;;9.40;7.90;;;18.90;56.90;;;;;;5034945;28;20025;-80
2022/05/04 02:37:54;;;;;;;8.73;7.32;;;18.90;57.10;;;;;;5052202;28;20027;-80
2022/05/04 02:40:20;;;;;;;9.18;6.85;;;19.10;57.10;;;;;;5034808;28;20020;-83
2022/05/04 02:42:46;;;;;;;8.10;6.55;;;18.70;58.70;;;;;;5047742;28;20071;-80
2022/05/04 02:45:12;;;;;;;10.90;7.90;;;18.60;58.90;;;;;;5031859;28;20052;-80
2022/05/04 02:47:39;;;;;;;9.25;6.78;;;18.80;58.30;;;;;;5030255;28;20029;-79
2022/05/04 02:50:06;;;;;;;8.85;7.25;;;18.80;58.10;;;;;;5033377;28;20475;-78
2022/05/04 02:52:32;;;;;;;11.27;7.30;;;18.40;59.00;;;;;;5031445;28;20487;-79
2022/05/04 02:54:58;;;;;;;8.70;6.57;;;18.30;59.70;;;;;;5048127;28;20022;-78
2022/05/04 02:57:23;;;;;;;9.18;6.65;;;18.30;59.70;;;;;;5030649;28;20029;-78
2022/05/04 02:59:49;;;;;;;9.13;6.88;;;18.60;58.80;;;;;;5033123;28;20414;-78
2022/05/04 03:02:27;;;;;;;8.45;6.90;;;18.80;58.30;;;;;;5032769;28;20481;-79
2022/05/04 03:04:57;;;;;;;10.25;7.20;;;18.90;57.80;;;;;;5030002;28;20025;-80
2022/05/04 03:07:23;;;;;;;10.43;7.22;;;18.70;58.00;;;;;;5031658;28;20078;-80
2022/05/04 03:09:49;;;;;;;10.30;8.05;;;18.80;57.40;;;;;;5030342;28;20065;-80
2022/05/04 03:12:15;;;;;;;11.27;7.78;;;18.90;57.30;;;;;;5029038;28;20025;-80
2022/05/04 03:14:40;;;;;;;9.05;7.45;;;18.90;57.00;;;;;;5032563;28;20018;-82
2022/05/04 03:17:06;;;;;;;9.23;8.05;;;18.90;56.80;;;;;;5032813;28;20020;-80
2022/05/04 03:19:31;;;;;;;10.30;7.32;;;18.90;56.80;;;;;;5031915;28;20075;-81
2022/05/04 03:21:57;;;;;;;8.35;6.63;;;19.10;56.60;;;;;;5032986;28;20465;-86
2022/05/04 03:24:23;;;;;;;8.18;6.45;;;19.00;56.50;;;;;;5028272;28;20122;-80
2022/05/04 03:26:49;;;;;;;8.93;7.60;;;18.60;56.80;;;;;;5012475;28;20383;-79
2022/05/04 03:29:15;;;;;;;12.48;8.27;;;18.30;57.50;;;;;;5030085;28;20440;-79
2022/05/04 03:31:41;;;;;;;9.32;7.63;;;18.40;57.60;;;;;;5030824;28;20128;-77
2022/05/04 03:34:07;;;;;;;9.13;7.60;;;18.60;57.40;;;;;;5031773;28;20031;-79
2022/05/04 03:36:35;;;;;;;9.63;7.75;;;18.60;57.40;;;;;;5030671;28;20030;-78
2022/05/04 03:39:02;;;;;;;12.23;8.63;;;18.60;57.60;;;;;;5032166;28;20026;-78
2022/05/04 03:41:28;;;;;;;8.70;7.43;;;18.70;57.40;;;;;;5031292;28;20024;-79
2022/05/04 03:43:53;;;;;;;7.90;6.68;;;18.80;57.00;;;;;;5029246;28;20017;-78
2022/05/04 03:46:24;;;;;;;8.90;6.95;;;18.80;56.40;;;;;;5026722;28;20160;-78
2022/05/04 03:48:55;;;;;;;10.05;7.60;;;18.30;57.30;;;;;;5032491;28;20040;-80
2022/05/04 03:51:21;;;;;;;10.27;7.82;;;18.30;57.20;;;;;;5019418;28;20025;-78
2022/05/04 03:53:47;;;;;;;12.10;8.02;;;18.40;57.40;;;;;;5036757;28;20017;-77
2022/05/04 03:56:14;;;;;;;8.15;6.68;;;18.60;57.40;;;;;;5052748;28;20147;-83
2022/05/04 03:58:40;;;;;;;10.23;8.07;;;18.50;56.70;;;;;;5052951;28;20017;-79
2022/05/04 04:01:06;;;;;;;11.55;8.85;;;18.20;57.20;;;;;;5026507;28;20040;-79
2022/05/04 04:03:32;;;;;;;10.35;7.75;;;18.30;58.00;;;;;;5051884;28;20008;-80
2022/05/04 04:05:58;;;;;;;10.05;8.93;;;18.30;58.70;;;;;;5035317;28;20036;-78
2022/05/04 04:08:24;;;;;;;11.65;9.27;;;18.10;59.50;;;;;;5034189;28;20021;-82
2022/05/04 04:10:50;;;;;;;10.30;8.48;;;18.00;60.00;;;;;;5018104;28;20368;-79
2022/05/04 04:13:15;;;;;;;10.10;7.57;;;18.30;59.20;;;;;;5040533;28;20013;-80
2022/05/04 04:15:42;;;;;;;10.55;8.65;;;18.50;58.60;;;;;;5047947;28;20101;-79
2022/05/04 04:18:09;;;;;;;11.52;9.10;;;18.80;58.10;;;;;;5046065;28;20013;-78
2022/05/04 04:23:20;;;;;;;10.80;8.40;;;18.90;58.40;;;;;;5047942;28;20031;-80
2022/05/04 04:25:46;;;;;;;9.75;7.40;;;19.00;58.40;;;;;;5055428;28;20116;-78
2022/05/04 04:28:12;;;;;;;8.35;7.13;;;18.90;57.60;;;;;;5036697;28;20021;-80
2022/05/04 04:30:38;;;;;;;9.30;7.60;;;18.70;58.70;;;;;;5037731;28;20496;-78
2022/05/04 04:33:07;;;;;;;10.32;7.57;;;18.70;58.60;;;;;;5055395;28;20043;-78
2022/05/04 04:35:34;;;;;;;11.45;9.93;;;18.90;59.30;;;;;;5054226;28;20021;-79
2022/05/04 04:38:00;;;;;;;12.15;9.57;;;18.80;59.80;;;;;;5021645;28;20032;-79
2022/05/04 04:40:26;;;;;;;10.65;8.50;;;19.10;59.30;;;;;;5054867;28;20409;-79
2022/05/04 04:42:52;;;;;;;12.07;9.45;;;19.40;58.80;;;;;;5032929;28;20508;-77
2022/05/04 04:45:18;;;;;;;11.27;8.65;;;19.50;58.40;;;;;;5030130;28;20084;-77
2022/05/04 04:47:47;;;;;;;9.60;8.23;;;19.60;58.40;;;;;;5023989;28;20392;-76
2022/05/04 04:50:13;;;;;;;10.07;8.38;;;19.50;58.60;;;;;;5028353;28;20029;-79
2022/05/04 04:52:40;;;;;;;11.95;8.15;;;19.50;58.80;;;;;;5028809;28;20021;-80
2022/05/04 04:55:06;;;;;;;9.25;7.63;;;19.50;59.20;;;;;;4681540;28;9999636;-78
2022/05/04 04:57:36;;;;;;;9.93;7.93;;;19.30;59.40;;;;;;5030300;28;20773;-78
2022/05/04 05:00:03;;;;;;;11.52;8.30;;;19.20;60.20;;;;;;5022338;28;20021;-77
2022/05/04 05:02:29;;;;;;;10.45;8.15;;;19.40;59.60;;;;;;5031122;28;20108;-79
2022/05/04 05:04:54;;;;;;;10.20;7.45;;;19.60;59.60;;;;;;5026753;28;20025;-80
2022/05/04 05:07:20;;;;;;;10.32;8.82;;;19.90;59.20;;;;;;5022498;28;20029;-78
2022/05/04 05:09:46;;;;;;;9.88;8.07;;;20.10;58.80;;;;;;5021371;28;20029;-79
2022/05/04 05:12:12;;;;;;;10.82;9.13;;;20.50;58.10;;;;;;5019985;28;20139;-79
2022/05/04 05:17:22;;;;;;;10.48;9.18;;;20.50;58.40;;;;;;5026245;28;20073;-79
2022/05/04 05:19:48;;;;;;;10.75;8.05;;;20.60;58.60;;;;;;5022904;28;20041;-79
2022/05/04 05:22:14;;;;;;;9.65;8.10;;;20.60;58.90;;;;;;5024781;28;20061;-81
2022/05/04 05:24:39;;;;;;;9.88;8.60;;;20.50;59.40;;;;;;5022537;28;20028;-78
2022/05/04 05:27:10;;;;;;;10.75;8.65;;;20.50;59.00;;;;;;5017078;28;20098;-86
2022/05/04 05:29:36;;;;;;;13.80;8.05;;;20.80;58.70;;;;;;5024129;28;20403;-83
2022/05/04 05:32:02;;;;;;;9.65;8.15;;;20.90;58.20;;;;;;5014842;28;20030;-79
2022/05/04 05:34:31;;;;;;;11.15;8.18;;;21.00;57.80;;;;;;5014649;28;20377;-83
2022/05/04 05:36:57;;;;;;;11.75;8.57;;;21.20;57.80;;;;;;5021409;28;20025;-79
2022/05/04 05:39:23;;;;;;;11.52;7.30;;;21.30;57.10;;;;;;5034093;28;20345;-80
2022/05/04 05:41:48;;;;;;;8.98;7.05;;;21.20;57.50;;;;;;5024433;28;20025;-79
2022/05/04 05:44:14;;;;;;;7.82;6.50;;;21.10;57.80;;;;;;5012582;28;20384;-80
2022/05/04 05:46:40;;;;;;;10.55;7.82;;;20.80;57.40;;;;;;5030885;28;20081;-81
2022/05/04 05:49:06;;;;;;;9.63;7.20;;;20.90;57.50;;;;;;5033662;28;20095;-80
2022/05/04 05:51:31;;;;;;;8.13;7.22;;;21.20;57.10;;;;;;5014849;28;20098;-80
2022/05/04 05:53:57;;;;;;;8.65;7.05;;;21.40;57.00;;;;;;5033267;28;20030;-80
2022/05/04 05:56:23;;;;;;;9.50;7.07;;;21.60;56.70;;;;;;5033890;28;20539;-81
2022/05/04 05:58:48;;;;;;;9.25;7.60;;;21.80;56.40;;;;;;5015366;28;20535;-80
2022/05/04 06:01:14;;;;;;;9.45;6.35;;;22.00;56.40;;;;;;5032802;28;20064;-80
2022/05/04 06:03:40;;;;;;;9.80;6.43;;;22.10;56.00;;;;;;5033590;28;20032;-80
2022/05/04 06:06:05;;;;;;;7.10;6.10;;;22.10;55.30;;;;;;5015516;28;20029;-80
2022/05/04 06:08:31;;;;;;;7.43;6.28;;;22.30;54.70;;;;;;5033503;28;20368;-80
2022/05/04 06:10:57;;;;;;;7.93;6.07;;;22.30;54.60;;;;;;5033917;28;20032;-79
2022/05/04 06:13:22;;;;;;;8.50;5.70;;;22.30;54.30;;;;;;5033721;28;20014;-79
2022/05/04 06:15:48;;;;;;;8.20;5.72;;;22.40;54.00;;;;;;5016221;28;20053;-80
2022/05/04 06:18:14;;;;;;;7.57;5.55;;;22.80;54.20;;;;;;5015853;28;20408;-80
2022/05/04 06:20:40;;;;;;;8.73;6.03;;;23.20;53.90;;;;;;5033177;28;20349;-77
2022/05/04 06:23:06;;;;;;;5.88;4.70;;;23.70;54.40;;;;;;5014832;28;20449;-78
2022/05/04 06:25:32;;;;;;;8.07;5.78;;;24.00;53.30;;;;;;5032949;28;20021;-78
2022/05/04 06:27:58;;;;;;;8.02;5.82;;;24.10;53.30;;;;;;5033360;28;20103;-78
2022/05/04 06:35:51;;;;;;;6.43;4.80;;;24.30;52.60;;;;;;5034295;28;20071;-78
2022/05/04 06:38:17;;;;;;;6.88;5.20;;;24.00;52.00;;;;;;5016832;28;20022;-76
2022/05/04 06:40:43;;;;;;;5.85;5.10;;;23.70;52.10;;;;;;5033129;28;20100;-77
2022/05/04 06:43:08;;;;;;;6.05;5.00;;;23.80;52.40;;;;;;5015819;28;20033;-77
2022/05/04 06:45:34;;;;;;;6.72;4.60;;;24.00;51.80;;;;;;5032786;28;20504;-78
2022/05/04 06:48:02;;;;;;;7.72;5.20;;;23.90;51.60;;;;;;5015030;28;20014;-77
2022/05/04 06:50:28;;;;;;;10.02;5.60;;;23.80;53.30;;;;;;5033066;28;20027;-78
2022/05/04 06:52:54;;;;;;;6.45;5.00;;;23.60;54.20;;;;;;5033276;28;20092;-78
2022/05/04 06:55:20;;;;;;;5.55;4.28;;;23.70;53.30;;;;;;5033232;28;20017;-80
2022/05/04 06:57:45;;;;;;;6.82;5.35;;;23.50;53.40;;;;;;5033430;28;20108;-80
2022/05/04 07:00:12;;;;;;;6.28;5.38;;;23.20;54.40;;;;;;5015474;28;20030;-77
2022/05/04 07:02:38;;;;;;;8.68;5.63;;;23.50;53.60;;;;;;5032674;28;20087;-76
2022/05/04 07:05:05;;;;;;;8.77;5.95;;;23.90;52.50;;;;;;5032802;28;20017;-78
2022/05/04 07:07:31;;;;;;;6.78;4.88;;;24.00;52.70;;;;;;5015010;28;20043;-81
2022/05/04 07:09:58;;;;;;;6.47;4.70;;;24.00;52.10;;;;;;5033394;28;20009;-77
2022/05/04 07:12:24;;;;;;;6.20;5.30;;;24.00;52.30;;;;;;4667162;28;9999585;-77
2022/05/04 07:14:52;;;;;;;7.35;4.82;;;24.00;53.10;;;;;;5016809;28;20116;-76
2022/05/04 07:17:18;;;;;;;7.10;5.07;;;24.20;52.70;;;;;;5032789;28;20014;-77
2022/05/04 07:19:43;;;;;;;6.07;5.03;;;24.10;53.30;;;;;;5033098;28;20452;-77
2022/05/04 07:22:09;;;;;;;7.10;5.07;;;24.00;53.10;;;;;;5014747;28;20121;-76
2022/05/04 07:24:35;;;;;;;7.25;5.07;;;23.70;54.40;;;;;;5015133;28;20117;-77
2022/05/04 07:27:01;;;;;;;8.43;5.85;;;23.70;54.10;;;;;;5032629;28;20076;-77
2022/05/04 07:29:26;;;;;;;5.65;4.88;;;24.60;53.20;;;;;;5015685;28;20018;-77
2022/05/04 07:31:52;;;;;;;6.30;4.60;;;25.10;52.00;;;;;;5032429;28;20057;-78
2022/05/04 07:34:18;;;;;;;6.80;4.40;;;25.40;51.70;;;;;;5034312;28;20117;-79
2022/05/04 07:36:45;;;;;;;7.00;5.35;;;25.20;51.90;;;;;;5019007;28;20547;-78
2022/05/04 07:44:40;;;;;;;6.72;5.25;;;25.80;51.90;;;;;;5036630;28;20083;-82
2022/05/04 07:47:06;;;;;;;6.13;4.95;;;25.80;51.80;;;;;;5019043;28;20036;-79
2022/05/04 07:49:32;;;;;;;5.78;5.15;;;25.90;50.90;;;;;;5036445;28;20028;-81
2022/05/04 07:51:58;;;;;;;7.43;5.20;;;26.30;51.00;;;;;;5036661;28;20026;-82
2022/05/04 07:54:24;;;;;;;8.57;4.93;;;26.30;51.70;;;;;;5036584;28;20021;-79
2022/05/04 07:56:49;;;;;;;7.05;5.22;;;26.30;50.60;;;;;;5018315;28;20419;-77
2022/05/04 07:59:15;;;;;;;7.30;5.10;;;26.40;50.50;;;;;;5018237;28;20045;-82
2022/05/04 08:04:25;;;;;;;6.43;4.97;;;26.80;50.50;;;;;;5036476;28;20045;-78
2022/05/04 08:06:50;;;;;;;5.43;4.63;;;26.90;49.90;;;;;;5036140;28;20403;-81
2022/05/04 08:09:16;;;;;;;5.55;4.57;;;26.00;49.50;;;;;;5018440;28;20029;-84
2022/05/04 08:11:43;;;;;;;6.45;4.80;;;24.40;52.80;;;;;;5036157;28;20100;-82
2022/05/04 08:14:10;;;;;;;6.60;5.00;;;23.70;51.80;;;;;;5036227;28;20025;-81
2022/05/04 08:16:37;;;;;;;7.15;4.60;;;23.20;53.80;;;;;;5036368;28;20017;-81
2022/05/04 08:19:03;;;;;;;6.40;5.10;;;24.00;53.50;;;;;;5035735;28;20075;-85
2022/05/04 08:21:29;;;;;;;6.45;4.03;;;25.00;53.30;;;;;;5018470;28;20056;-83
2022/05/04 08:23:55;;;;;;;4.68;3.38;;;25.80;48.40;;;;;;5018400;28;20112;-77
2022/05/04 08:26:20;;;;;;;6.22;3.50;;;26.30;50.00;;;;;;5035647;28;20029;-78
2022/05/04 08:28:46;;;;;;;4.72;3.47;;;26.60;49.20;;;;;;5035638;28;20036;-79
2022/05/04 08:31:12;;;;;;;4.57;3.30;;;27.00;46.80;;;;;;5036261;28;20364;-79
2022/05/04 08:33:38;;;;;;;6.15;3.47;;;27.20;46.30;;;;;;5018287;28;20040;-84
2022/05/04 08:36:04;;;;;;;5.32;3.53;;;27.30;47.20;;;;;;5035555;28;20421;-81
2022/05/04 08:38:30;;;;;;;5.47;3.20;;;27.40;46.40;;;;;;5018213;28;20025;-82
2022/05/04 08:40:57;;;;;;;5.45;3.05;;;27.60;46.90;;;;;;5035820;28;20029;-84
2022/05/04 08:43:24;;;;;;;5.43;3.38;;;27.60;44.50;;;;;;5017536;28;20026;-78
2022/05/04 08:45:53;;;;;;;5.53;3.08;;;27.90;45.10;;;;;;5034689;28;20125;-84
2022/05/04 08:48:22;;;;;;;5.22;3.13;;;28.00;45.00;;;;;;5035823;28;20431;-85
2022/05/04 08:50:50;;;;;;;4.00;2.92;;;27.40;44.80;;;;;;5035382;28;20100;-84
2022/05/04 08:53:16;;;;;;;4.28;2.97;;;26.30;46.70;;;;;;5018017;28;20021;-86
2022/05/04 08:55:44;;;;;;;4.72;3.00;;;26.20;46.50;;;;;;5035573;28;20053;-80
2022/05/04 08:58:10;;;;;;;5.50;3.15;;;26.50;46.10;;;;;;5035309;28;20022;-81
2022/05/04 09:00:36;;;;;;;4.65;2.88;;;26.90;45.60;;;;;;5035405;28;20029;-78
2022/05/04 09:03:01;;;;;;;4.15;2.90;;;27.30;45.10;;;;;;5017821;28;20367;-81
2022/05/04 09:05:29;;;;;;;5.30;2.85;;;27.50;45.80;;;;;;5034971;28;20021;-81
2022/05/04 09:07:58;;;;;;;4.43;2.85;;;27.80;45.30;;;;;;5035139;28;20369;-79
2022/05/04 09:10:34;;;;;;;4.40;2.75;;;27.90;44.60;;;;;;5017933;28;20029;-80
2022/05/04 09:12:59;;;;;;;3.92;2.80;;;28.00;44.30;;;;;;5017171;28;20025;-84
2022/05/04 09:15:31;;;;;;;4.35;2.65;;;28.00;44.40;;;;;;5017715;28;20368;-80
2022/05/04 09:18:00;;;;;;;5.57;3.00;;;27.90;43.70;;;;;;5034901;28;20022;-84
2022/05/04 09:23:31;;;;;;;4.97;2.70;;;28.20;44.30;;;;;;5035646;28;20028;-80
2022/05/04 09:25:57;;;;;;;4.63;2.50;;;28.10;43.60;;;;;;5020214;28;20045;-82
2022/05/04 09:28:24;;;;;;;3.90;2.53;;;28.00;43.50;;;;;;5017407;28;20018;-86
2022/05/04 09:30:52;;;;;;;4.03;2.65;;;27.90;43.50;;;;;;5017036;28;20403;-81
2022/05/04 09:33:20;;;;;;;5.15;2.97;;;28.00;44.00;;;;;;5034875;28;20022;-88
2022/05/04 09:35:46;;;;;;;4.00;2.63;;;28.30;44.20;;;;;;5034875;28;20026;-83
2022/05/04 09:46:39;;;;;;;3.63;2.30;;;27.80;45.30;;;;;;5034289;28;20129;-83
2022/05/04 09:49:14;;;;;;;4.03;2.30;;;27.40;44.00;;;;;;5034723;28;20014;-82
2022/05/04 09:51:43;;;;;;;4.68;2.30;;;27.40;45.10;;;;;;5017019;28;20132;-80
2022/05/04 09:54:22;;;;;;;4.40;2.28;;;27.80;44.80;;;;;;5017101;28;20021;-79
2022/05/04 09:56:49;;;;;;;3.72;2.00;;;27.70;45.10;;;;;;5016214;28;20086;-79
2022/05/04 09:59:17;;;;;;;4.05;2.30;;;26.40;42.80;;;;;;5033684;28;20021;-76
2022/05/04 10:01:43;;;;;;;3.17;2.03;;;24.90;44.20;;;;;;5016828;28;20021;-82
2022/05/04 10:04:10;;;;;;;3.85;2.42;;;24.60;46.50;;;;;;5033922;28;20058;-84
2022/05/04 10:06:36;;;;;;;3.55;2.30;;;25.30;47.60;;;;;;5034015;28;20033;-78
2022/05/04 10:09:06;;;;;;;3.60;2.30;;;26.50;46.00;;;;;;5033585;28;20017;-81
2022/05/04 10:11:35;;;;;;;4.60;2.17;;;27.60;44.10;;;;;;5016218;28;20494;-94
2022/05/04 10:14:09;;;;;;;5.10;2.20;;;27.30;43.40;;;;;;5033657;28;20380;-79
2022/05/04 10:16:41;;;;;;;4.53;2.30;;;26.40;44.30;;;;;;5033987;28;20023;-81
2022/05/04 10:19:16;;;;;;;3.30;2.17;;;25.80;46.70;;;;;;5016246;28;20021;-79
2022/05/04 10:21:43;;;;;;;3.38;2.30;;;26.70;45.50;;;;;;5016198;28;20030;-76
2022/05/04 10:24:10;;;;;;;3.40;2.30;;;27.60;44.50;;;;;;5033925;28;20040;-82
2022/05/04 10:26:37;;;;;;;4.18;2.42;;;28.40;43.20;;;;;;5015509;28;20037;-82
2022/05/04 10:32:09;;;;;;;3.30;2.30;;;27.80;44.30;;;;;;5033965;28;20075;-87
2022/05/04 10:34:41;;;;;;;4.75;2.42;;;28.10;44.80;;;;;;5015744;28;20022;-84
2022/05/04 10:37:07;;;;;;;4.55;2.40;;;29.30;44.70;;;;;;5016010;28;20032;-86
2022/05/04 10:39:33;;;;;;;4.18;2.20;;;29.80;42.90;;;;;;5033261;28;20025;-80
2022/05/04 10:42:00;;;;;;;3.42;2.20;;;29.20;43.00;;;;;;5033193;28;20021;-79
2022/05/04 10:44:52;;;;;;;4.45;2.53;;;29.20;43.30;;;;;;5033055;28;20406;-80
2022/05/04 10:47:19;;;;;;;4.07;2.42;;;30.40;43.60;;;;;;5033147;28;20036;-83
2022/05/04 10:49:44;;;;;;;3.90;2.40;;;31.00;41.90;;;;;;5033248;28;20063;-79
2022/05/04 10:52:10;;;;;;;3.83;2.22;;;30.10;41.40;;;;;;5033426;28;20025;-85
2022/05/04 10:54:47;;;;;;;3.70;2.40;;;30.00;42.50;;;;;;5016080;28;20018;-80
2022/05/04 10:57:14;;;;;;;3.50;2.30;;;29.90;41.50;;;;;;5015938;28;20108;-91
2022/05/04 10:59:40;;;;;;;5.03;2.85;;;29.50;42.80;;;;;;5016715;28;20053;-86
2022/05/04 11:02:11;;;;;;;4.20;2.30;;;29.40;42.70;;;;;;5017031;28;20456;-82
2022/05/04 11:04:39;;;;;;;3.95;2.30;;;29.30;42.00;;;;;;5033086;28;20298;-85
2022/05/04 11:07:06;;;;;;;3.40;2.25;;;29.00;40.70;;;;;;5033270;28;20052;-82
2022/05/04 11:09:39;;;;;;;4.43;2.35;;;28.90;43.40;;;;;;5015691;28;20026;-80
2022/05/04 11:12:07;;;;;;;3.35;2.45;;;29.00;42.90;;;;;;5015557;28;20034;-84
2022/05/04 11:14:34;;;;;;;3.80;2.60;;;29.20;42.20;;;;;;5033244;28;20025;-82
2022/05/04 11:17:01;;;;;;;5.03;2.30;;;29.20;40.90;;;;;;5015570;28;20017;-89
2022/05/04 11:19:29;;;;;;;3.95;2.60;;;29.30;43.80;;;;;;5015599;28;20017;-81
2022/05/04 11:21:56;;;;;;;3.10;2.30;;;29.50;41.30;;;;;;5032748;28;20487;-83
2022/05/04 11:24:25;;;;;;;5.20;2.53;;;29.40;41.00;;;;;;5032879;28;20471;-81
2022/05/04 11:26:52;;;;;;;4.15;2.47;;;28.80;41.50;;;;;;5015261;28;20175;-89
2022/05/04 11:29:28;;;;;;;3.55;2.50;;;28.90;43.10;;;;;;5033570;28;20037;-87
2022/05/04 11:31:55;;;;;;;3.90;2.50;;;29.10;43.90;;;;;;5015054;28;20112;-88
2022/05/04 11:34:26;;;;;;;4.50;2.72;;;29.20;41.90;;;;;;5033010;28;20025;-80
2022/05/04 11:36:53;;;;;;;4.82;2.70;;;29.30;40.80;;;;;;5032658;28;20025;-80
2022/05/04 11:39:24;;;;;;;6.72;2.70;;;29.80;43.30;;;;;;5016147;28;20032;-80
2022/05/04 11:42:00;;;;;;;5.00;2.53;;;29.80;39.90;;;;;;5032602;28;20025;-84
2022/05/04 11:44:27;;;;;;;6.93;2.75;;;29.80;41.60;;;;;;5015153;28;20025;-79
2022/05/04 11:47:03;;;;;;;4.18;2.45;;;29.60;41.80;;;;;;5032857;28;20045;-82
2022/05/04 11:49:32;;;;;;;4.53;2.88;;;28.50;42.50;;;;;;5032836;28;20053;-83
2022/05/04 11:51:59;;;;;;;4.10;2.50;;;28.70;44.00;;;;;;5033257;28;20033;-84
2022/05/04 11:54:25;;;;;;;5.93;2.63;;;28.60;41.70;;;;;;5015051;28;20024;-83
2022/05/04 11:56:53;;;;;;;5.95;2.58;;;29.00;41.70;;;;;;5033257;28;20032;-81
2022/05/04 11:59:19;;;;;;;3.55;2.53;;;28.80;41.40;;;;;;5032945;28;20124;-83
2022/05/04 12:01:46;;;;;;;3.65;2.30;;;28.90;42.70;;;;;;5015275;28;20060;-89
2022/05/04 12:04:13;;;;;;;5.63;2.60;;;29.00;42.80;;;;;;5015303;28;20120;-79
2022/05/04 12:06:42;;;;;;;5.60;2.40;;;28.80;41.60;;;;;;5015049;28;20448;-81
2022/05/04 12:09:08;;;;;;;4.80;2.40;;;28.90;41.20;;;;;;5015746;28;20022;-83
2022/05/04 12:11:34;;;;;;;4.78;2.45;;;29.00;41.60;;;;;;5015398;28;20070;-80
2022/05/04 12:14:00;;;;;;;3.70;2.40;;;29.10;41.40;;;;;;5032501;28;20018;-82
2022/05/04 12:16:28;;;;;;;3.65;2.20;;;29.00;42.10;;;;;;5014925;28;20037;-89
2022/05/04 12:18:54;;;;;;;3.72;2.40;;;28.90;41.40;;;;;;5033902;28;20096;-82
2022/05/04 12:21:21;;;;;;;3.58;2.63;;;28.90;41.80;;;;;;5034162;28;20025;-86
2022/05/04 12:23:50;;;;;;;4.38;2.65;;;28.70;42.20;;;;;;5036308;28;20045;-86
2022/05/04 12:26:17;;;;;;;6.88;2.85;;;28.80;42.40;;;;;;5036338;28;20031;-87
2022/05/04 12:33:08;;;;;;;6.47;2.75;;;29.00;42.30;;;;;;5036050;28;20074;-86
2022/05/04 12:34:15;;;;;;;4.20;2.80;;;29.10;41.20;;;;;;5036201;28;20387;-84
2022/05/04 12:36:44;;;;;;;3.70;2.40;;;29.20;40.80;;;;;;5018250;28;20022;-84
2022/05/04 12:39:10;;;;;;;4.85;2.70;;;29.20;41.30;;;;;;5035690;28;20032;-84
2022/05/04 12:41:36;;;;;;;4.47;2.50;;;29.40;41.00;;;;;;5035738;28;20022;-81
2022/05/04 12:44:05;;;;;;;6.13;2.80;;;29.20;42.00;;;;;;5035729;28;20404;-78
2022/05/04 12:46:30;;;;;;;3.83;2.60;;;27.90;43.20;;;;;;5035733;28;20097;-78
2022/05/04 12:48:56;;;;;;;3.70;2.50;;;27.60;42.30;;;;;;5017432;28;20021;-79
2022/05/04 12:51:24;;;;;;;5.97;2.70;;;28.00;42.40;;;;;;5035480;28;20025;-79
2022/05/04 12:53:51;;;;;;;3.70;2.63;;;27.80;43.00;;;;;;5035909;28;20021;-87
2022/05/04 12:59:03;;;;;;;5.22;2.80;;;28.60;41.30;;;;;;5035797;28;20040;-79
2022/05/04 13:01:30;;;;;;;3.53;2.53;;;28.70;42.00;;;;;;5035155;28;20681;-80
2022/05/04 13:04:00;;;;;;;4.40;2.72;;;29.20;41.60;;;;;;5034966;28;20486;-79
2022/05/04 13:06:27;;;;;;;3.63;2.60;;;29.70;41.00;;;;;;5034671;28;20075;-81
2022/05/04 13:08:53;;;;;;;4.53;2.90;;;29.70;41.00;;;;;;5017818;28;20029;-88
2022/05/04 13:11:20;;;;;;;3.92;2.70;;;29.90;42.00;;;;;;5018117;28;20104;-80
2022/05/04 13:13:46;;;;;;;4.05;2.55;;;29.50;41.20;;;;;;5035399;28;20029;-83
2022/05/04 13:16:12;;;;;;;4.93;2.50;;;29.80;40.80;;;;;;5035082;28;20025;-85
2022/05/04 13:18:39;;;;;;;4.93;2.90;;;29.90;41.40;;;;;;5035412;28;20017;-91
2022/05/04 13:21:05;;;;;;;3.90;2.85;;;29.60;42.00;;;;;;5017595;28;20520;-78
2022/05/04 13:23:31;;;;;;;4.97;2.83;;;28.40;41.40;;;;;;5035177;28;20014;-79
2022/05/04 13:25:57;;;;;;;5.15;2.70;;;27.70;41.90;;;;;;5035210;28;20376;-90